createdAt,value
2022-12-13T00:00:10.646Z,301.30
2022-12-13T00:01:21.017Z,281.49
2022-12-13T00:02:27.127Z,243.71
2022-12-13T00:03:31.138Z,233.95
2022-12-13T00:04:37.335Z,231.74
2022-12-13T00:05:46.463Z,241.70
2022-12-13T00:06:55.350Z,211.42
2022-12-13T00:07:59.588Z,210.44
2022-12-13T00:09:07.347Z,208.84
2022-12-13T00:10:14.138Z,221.03
2022-12-13T00:11:18.013Z,202.08
2022-12-13T00:12:25.239Z,191.15
2022-12-13T00:13:29.293Z,177.95
2022-12-13T00:14:35.539Z,187.22
2022-12-13T00:15:40.087Z,172.16
2022-12-13T00:16:49.763Z,164.02
2022-12-13T00:17:53.970Z,175.92
2022-12-13T00:19:02.989Z,179.16
2022-12-13T00:20:07.603Z,174.01
2022-12-13T00:21:21.150Z,173.77
2022-12-13T00:22:25.463Z,170.24
2022-12-13T00:23:32.458Z,167.56
2022-12-13T00:24:44.381Z,137.24
2022-12-13T00:25:49.511Z,139.03
2022-12-13T00:26:59.169Z,145.98
2022-12-13T00:28:02.487Z,163.28
2022-12-13T00:29:11.594Z,178.75
2022-12-13T00:30:15.151Z,182.36
2022-12-13T00:32:49.532Z,168.80
2022-12-13T00:33:53.647Z,164.37
2022-12-13T00:35:00.550Z,155.61
2022-12-13T00:36:07.862Z,151.72
2022-12-13T00:37:16.449Z,144.75
2022-12-13T00:38:20.137Z,148.16
2022-12-13T00:39:26.374Z,150.70
2022-12-13T00:40:33.176Z,152.55
2022-12-13T00:41:37.525Z,150.03
2022-12-13T00:42:43.499Z,139.27
2022-12-13T00:43:47.973Z,124.64
2022-12-13T00:44:53.975Z,128.66
2022-12-13T00:45:58.310Z,127.81
2022-12-13T00:47:04.290Z,126.99
2022-12-13T00:48:07.786Z,122.72
2022-12-13T00:49:16.132Z,126.12
2022-12-13T00:50:22.532Z,114.27
2022-12-13T00:51:29.126Z,114.55
2022-12-13T00:52:38.224Z,126.31
2022-12-13T00:53:41.954Z,124.97
2022-12-13T00:54:47.909Z,135.97
2022-12-13T00:55:51.278Z,134.55
2022-12-13T00:56:58.210Z,134.24
2022-12-13T00:58:01.500Z,132.29
2022-12-13T00:59:08.563Z,124.65
2022-12-13T01:00:15.794Z,125.21
2022-12-13T01:01:24.782Z,129.12
2022-12-13T01:02:31.567Z,131.69
2022-12-13T01:03:35.343Z,126.75
2022-12-13T01:04:41.373Z,124.28
2022-12-13T01:06:13.649Z,120.55
2022-12-13T01:07:10.576Z,122.23
2022-12-13T01:08:17.391Z,129.39
2022-12-13T01:09:30.095Z,117.78
2022-12-13T01:10:33.417Z,118.71
2022-12-13T01:11:39.316Z,129.68
2022-12-13T01:12:42.703Z,120.53
2022-12-13T01:13:49.626Z,120.94
2022-12-13T01:14:56.317Z,132.77
2022-12-13T01:16:04.729Z,133.31
2022-12-13T01:17:11.772Z,132.46
2022-12-13T01:18:18.537Z,123.99
2022-12-13T01:19:25.943Z,120.01
2022-12-13T01:20:29.187Z,114.02
2022-12-13T01:21:35.793Z,131.46
2022-12-13T01:22:41.857Z,134.36
2022-12-13T01:23:48.481Z,132.70
2022-12-13T01:24:55.284Z,134.40
2022-12-13T01:25:58.798Z,123.99
2022-12-13T01:27:04.821Z,136.65
2022-12-13T01:28:08.092Z,144.66
2022-12-13T01:29:17.018Z,136.70
2022-12-13T01:30:21.145Z,148.43
2022-12-13T01:31:28.241Z,137.81
2022-12-13T01:32:34.135Z,132.30
2022-12-13T01:33:39.320Z,119.27
2022-12-13T01:34:45.312Z,111.51
2022-12-13T01:35:49.845Z,114.28
2022-12-13T01:36:58.102Z,115.21
2022-12-13T01:38:02.338Z,116.14
2022-12-13T01:39:26.665Z,119.53
2022-12-13T01:40:32.981Z,126.30
2022-12-13T01:41:47.717Z,133.00
2022-12-13T01:42:51.023Z,119.82
2022-12-13T01:44:03.438Z,119.87
2022-12-13T01:45:27.369Z,123.97
2022-12-13T01:46:32.584Z,128.90
2022-12-13T01:47:48.886Z,130.79
2022-12-13T01:49:05.529Z,133.91
2022-12-13T01:50:35.588Z,143.66
2022-12-13T01:51:48.169Z,123.37
2022-12-13T01:53:00.213Z,127.69
2022-12-13T01:54:09.050Z,120.09
2022-12-13T01:55:23.217Z,113.31
2022-12-13T01:56:37.140Z,114.31
2022-12-13T01:57:50.076Z,112.90
2022-12-13T01:58:58.397Z,113.55
2022-12-13T02:00:05.083Z,110.01
2022-12-13T02:01:11.106Z,113.94
2022-12-13T02:02:19.295Z,118.66
2022-12-13T02:03:23.904Z,123.21
2022-12-13T02:04:44.242Z,116.37
2022-12-13T02:06:01.178Z,125.20
2022-12-13T02:07:07.808Z,131.43
2022-12-13T02:08:19.850Z,138.17
2022-12-13T02:09:24.306Z,141.95
2022-12-13T02:10:35.633Z,157.82
2022-12-13T02:11:43.855Z,166.27
2022-12-13T02:12:54.497Z,156.25
2022-12-13T02:13:57.982Z,160.82
2022-12-13T02:15:11.964Z,165.09
2022-12-13T02:16:44.638Z,159.02
2022-12-13T02:18:24.196Z,159.04
2022-12-13T02:20:22.520Z,156.24
2022-12-13T02:21:50.194Z,166.99
2022-12-13T02:23:40.032Z,163.85
2022-12-13T02:25:09.105Z,156.58
2022-12-13T02:27:01.228Z,157.40
2022-12-13T02:28:38.423Z,154.68
2022-12-13T02:30:30.748Z,156.90
2022-12-13T02:31:51.146Z,153.51
2022-12-13T02:33:32.813Z,163.08
2022-12-13T02:34:46.501Z,159.56
2022-12-13T02:36:05.909Z,155.02
2022-12-13T02:37:26.696Z,159.79
2022-12-13T02:38:47.849Z,171.73
2022-12-13T02:40:05.688Z,166.97
2022-12-13T02:41:23.816Z,165.94
2022-12-13T02:42:41.529Z,158.64
2022-12-13T02:44:01.251Z,160.55
2022-12-13T02:45:20.511Z,157.89
2022-12-13T02:46:38.934Z,163.55
2022-12-13T02:47:44.606Z,157.08
2022-12-13T02:48:58.077Z,167.85
2022-12-13T02:50:10.013Z,166.25
2022-12-13T02:51:20.733Z,168.18
2022-12-13T02:52:31.508Z,161.10
2022-12-13T02:53:41.495Z,161.73
2022-12-13T02:54:45.052Z,161.44
2022-12-13T02:55:51.683Z,161.03
2022-12-13T02:56:56.886Z,164.08
2022-12-13T02:58:02.820Z,158.61
2022-12-13T02:59:17.871Z,154.56
2022-12-13T03:00:37.907Z,154.22
2022-12-13T03:02:11.982Z,152.65
2022-12-13T03:03:38.796Z,162.54
2022-12-13T03:05:17.633Z,164.71
2022-12-13T03:06:47.676Z,160.47
2022-12-13T03:08:13.402Z,161.14
2022-12-13T03:09:43.170Z,157.52
2022-12-13T03:11:03.940Z,152.45
2022-12-13T03:12:41.692Z,150.20
2022-12-13T03:13:58.504Z,152.09
2022-12-13T03:15:18.707Z,146.06
2022-12-13T03:16:36.687Z,147.27
2022-12-13T03:17:55.089Z,145.56
2022-12-13T03:19:03.155Z,147.01
2022-12-13T03:20:23.312Z,147.39
2022-12-13T03:21:30.155Z,147.91
2022-12-13T03:22:35.224Z,142.76
2022-12-13T03:23:42.037Z,142.18
2022-12-13T03:24:45.614Z,147.57
2022-12-13T03:25:58.512Z,142.98
2022-12-13T03:27:02.153Z,141.60
2022-12-13T03:28:08.703Z,139.11
2022-12-13T03:29:12.045Z,133.27
2022-12-13T03:30:18.007Z,140.33
2022-12-13T03:31:25.770Z,139.55
2022-12-13T03:32:29.232Z,135.68
2022-12-13T03:33:38.982Z,134.16
2022-12-13T03:34:44.221Z,135.15
2022-12-13T03:35:53.074Z,131.64
2022-12-13T03:37:00.024Z,140.26
2022-12-13T03:38:05.845Z,132.57
2022-12-13T03:39:11.956Z,134.34
2022-12-13T03:40:15.581Z,145.57
2022-12-13T03:41:31.600Z,152.91
2022-12-13T03:42:35.975Z,139.14
2022-12-13T03:43:42.928Z,132.20
2022-12-13T03:44:46.165Z,135.21
2022-12-13T03:45:52.150Z,135.18
2022-12-13T03:46:57.987Z,131.96
2022-12-13T03:48:05.364Z,130.19
2022-12-13T03:49:17.421Z,133.79
2022-12-13T03:50:27.097Z,127.13
2022-12-13T03:51:33.331Z,124.72
2022-12-13T03:52:36.744Z,120.14
2022-12-13T03:53:43.565Z,118.17
2022-12-13T03:54:47.560Z,122.27
2022-12-13T03:55:53.850Z,129.87
2022-12-13T03:56:58.239Z,123.78
2022-12-13T03:58:07.865Z,124.75
2022-12-13T03:59:12.350Z,126.92
2022-12-13T04:00:19.587Z,126.01
2022-12-13T04:01:25.513Z,122.24
2022-12-13T04:02:31.198Z,130.71
2022-12-13T04:03:37.893Z,137.83
2022-12-13T04:04:44.675Z,144.58
2022-12-13T04:05:50.726Z,140.76
2022-12-13T04:06:54.092Z,131.01
2022-12-13T04:08:02.363Z,129.78
2022-12-13T04:09:05.921Z,127.57
2022-12-13T04:10:26.459Z,127.89
2022-12-13T04:11:45.100Z,130.20
2022-12-13T04:13:03.366Z,147.42
2022-12-13T04:14:06.695Z,145.00
2022-12-13T04:15:14.257Z,132.12
2022-12-13T04:16:18.285Z,139.20
2022-12-13T04:17:24.308Z,133.21
2022-12-13T04:18:27.660Z,138.41
2022-12-13T04:19:33.994Z,144.11
2022-12-13T04:20:40.722Z,145.66
2022-12-13T04:21:46.653Z,144.23
2022-12-13T04:22:50.103Z,147.99
2022-12-13T04:23:56.023Z,150.09
2022-12-13T04:25:05.523Z,150.04
2022-12-13T04:26:14.598Z,153.84
2022-12-13T04:27:17.932Z,141.67
2022-12-13T04:28:23.943Z,143.53
2022-12-13T04:29:34.451Z,130.52
2022-12-13T04:30:41.350Z,122.40
2022-12-13T04:31:45.545Z,124.15
2022-12-13T04:32:52.005Z,132.44
2022-12-13T04:33:55.251Z,135.65
2022-12-13T04:35:01.751Z,135.92
2022-12-13T04:36:11.589Z,130.95
2022-12-13T04:37:15.932Z,129.55
2022-12-13T04:38:23.179Z,131.55
2022-12-13T04:39:34.445Z,127.57
2022-12-13T04:40:38.093Z,126.53
2022-12-13T04:41:44.254Z,129.17
2022-12-13T04:42:48.486Z,117.74
2022-12-13T04:44:00.484Z,127.75
2022-12-13T04:45:04.384Z,129.98
2022-12-13T04:46:10.429Z,137.51
2022-12-13T04:47:13.664Z,137.46
2022-12-13T04:48:30.989Z,132.52
2022-12-13T04:49:35.392Z,130.28
2022-12-13T04:50:41.234Z,125.48
2022-12-13T04:51:47.586Z,127.80
2022-12-13T04:52:53.991Z,129.05
2022-12-13T04:54:23.526Z,132.15
2022-12-13T04:55:24.175Z,122.97
2022-12-13T04:56:27.592Z,121.45
2022-12-13T04:57:33.668Z,127.83
2022-12-13T04:58:37.137Z,131.83
2022-12-13T04:59:47.211Z,119.85
2022-12-13T05:00:53.199Z,110.84
2022-12-13T05:01:56.612Z,110.54
2022-12-13T05:03:02.559Z,113.97
2022-12-13T05:04:08.818Z,116.77
2022-12-13T05:05:13.380Z,117.71
2022-12-13T05:06:26.824Z,117.16
2022-12-13T05:07:36.443Z,110.50
2022-12-13T05:08:49.088Z,103.31
2022-12-13T05:09:52.452Z,105.52
2022-12-13T05:10:59.232Z,109.92
2022-12-13T05:12:02.531Z,116.64
2022-12-13T05:13:10.295Z,146.13
2022-12-13T05:14:13.618Z,131.94
2022-12-13T05:15:19.881Z,111.11
2022-12-13T05:16:24.683Z,112.52
2022-12-13T05:17:30.815Z,115.16
2022-12-13T05:18:36.658Z,106.13
2022-12-13T05:19:42.615Z,100.68
2022-12-13T05:20:48.584Z,102.11
2022-12-13T05:21:52.773Z,108.27
2022-12-13T05:23:02.220Z,110.90
2022-12-13T05:24:10.604Z,103.30
2022-12-13T05:25:16.797Z,108.40
2022-12-13T05:26:23.129Z,111.57
2022-12-13T05:27:29.998Z,114.94
2022-12-13T05:28:34.816Z,105.33
2022-12-13T05:29:41.863Z,105.30
2022-12-13T05:30:45.848Z,103.62
2022-12-13T05:31:51.856Z,107.62
2022-12-13T05:32:59.059Z,112.79
2022-12-13T05:34:02.507Z,116.06
2022-12-13T05:35:10.308Z,116.86
2022-12-13T05:36:16.187Z,121.46
2022-12-13T05:37:22.139Z,127.35
2022-12-13T05:38:30.061Z,132.24
2022-12-13T05:39:35.934Z,137.04
2022-12-13T05:40:39.259Z,133.71
2022-12-13T05:41:45.799Z,136.67
2022-12-13T05:42:51.848Z,136.31
2022-12-13T05:44:05.695Z,145.91
2022-12-13T05:45:13.735Z,138.88
2022-12-13T05:46:17.453Z,141.56
2022-12-13T05:47:23.373Z,138.57
2022-12-13T05:48:26.711Z,142.09
2022-12-13T05:49:33.651Z,156.17
2022-12-13T05:50:38.511Z,154.43
2022-12-13T05:51:44.788Z,157.62
2022-12-13T05:52:48.097Z,163.80
2022-12-13T05:53:56.632Z,164.52
2022-12-13T05:55:03.401Z,165.37
2022-12-13T05:56:10.200Z,163.14
2022-12-13T05:57:16.676Z,174.30
2022-12-13T05:58:23.266Z,181.91
2022-12-13T05:59:29.561Z,180.81
2022-12-13T06:00:33.734Z,187.90
2022-12-13T06:01:44.084Z,187.56
2022-12-13T06:02:47.577Z,208.47
2022-12-13T06:03:55.843Z,201.22
2022-12-13T06:05:03.187Z,196.23
2022-12-13T06:06:14.060Z,194.83
2022-12-13T06:07:17.585Z,175.02
2022-12-13T06:08:24.381Z,195.52
2022-12-13T06:09:39.990Z,198.94
2022-12-13T06:10:46.253Z,198.01
2022-12-13T06:12:01.104Z,202.83
2022-12-13T06:13:32.203Z,220.24
2022-12-13T06:14:33.957Z,216.58
2022-12-13T06:15:44.576Z,217.46
2022-12-13T06:16:50.813Z,202.01
2022-12-13T06:17:55.053Z,227.71
2022-12-13T06:19:04.331Z,230.90
2022-12-13T06:20:23.482Z,265.39
2022-12-13T06:21:40.759Z,267.78
2022-12-13T06:22:49.695Z,258.96
2022-12-13T06:23:56.405Z,265.77
2022-12-13T06:25:02.916Z,260.92
2022-12-13T06:26:11.213Z,290.43
2022-12-13T06:27:17.020Z,288.04
2022-12-13T06:28:23.467Z,289.52
2022-12-13T06:29:30.335Z,242.08
2022-12-13T06:30:33.752Z,267.93
2022-12-13T06:31:39.946Z,277.97
2022-12-13T06:32:45.986Z,249.22
2022-12-13T06:33:52.155Z,230.70
2022-12-13T06:34:58.914Z,241.11
2022-12-13T06:36:08.047Z,248.61
2022-12-13T06:37:17.303Z,229.21
2022-12-13T06:38:31.126Z,231.57
2022-12-13T06:39:38.544Z,236.79
2022-12-13T06:40:47.934Z,240.70
2022-12-13T06:41:54.736Z,246.46
2022-12-13T06:43:01.083Z,247.16
2022-12-13T06:44:05.419Z,239.05
2022-12-13T06:45:12.336Z,240.85
2022-12-13T06:46:19.270Z,258.71
2022-12-13T06:47:31.520Z,274.42
2022-12-13T06:48:40.752Z,233.85
2022-12-13T06:49:44.706Z,215.37
2022-12-13T06:50:51.463Z,220.39
2022-12-13T06:51:58.180Z,226.93
2022-12-13T06:53:04.250Z,235.53
2022-12-13T06:54:10.359Z,248.90
2022-12-13T06:55:24.107Z,261.17
2022-12-13T06:56:33.909Z,219.71
2022-12-13T06:57:37.979Z,240.10
2022-12-13T06:58:47.027Z,234.69
2022-12-13T06:59:53.431Z,228.19
2022-12-13T07:01:06.731Z,225.14
2022-12-13T07:02:25.529Z,227.20
2022-12-13T07:03:32.961Z,258.45
2022-12-13T07:04:38.840Z,239.20
2022-12-13T07:05:45.392Z,239.81
2022-12-13T07:06:51.462Z,212.30
2022-12-13T07:07:57.893Z,209.52
2022-12-13T07:09:04.695Z,200.92
2022-12-13T07:10:22.787Z,192.67
2022-12-13T07:11:34.977Z,175.81
2022-12-13T07:12:40.962Z,176.84
2022-12-13T07:13:48.222Z,188.04
2022-12-13T07:14:56.267Z,194.86
2022-12-13T07:16:02.274Z,204.53
2022-12-13T07:17:05.919Z,187.29
2022-12-13T07:18:12.120Z,187.25
2022-12-13T07:19:23.968Z,180.96
2022-12-13T07:20:31.273Z,170.03
2022-12-13T07:21:39.318Z,161.94
2022-12-13T07:22:49.188Z,171.32
2022-12-13T07:23:57.573Z,174.52
2022-12-13T07:25:00.924Z,168.93
2022-12-13T07:26:10.256Z,177.07
2022-12-13T07:27:16.211Z,174.25
2022-12-13T07:28:22.640Z,171.86
2022-12-13T07:29:26.040Z,180.12
2022-12-13T07:30:32.237Z,175.30
2022-12-13T07:31:39.770Z,177.86
2022-12-13T07:32:45.887Z,168.20
2022-12-13T07:33:51.865Z,166.41
2022-12-13T07:34:55.219Z,164.96
2022-12-13T07:36:04.923Z,166.14
2022-12-13T07:37:30.447Z,159.81
2022-12-13T07:38:37.291Z,162.93
2022-12-13T07:39:40.633Z,170.47
2022-12-13T07:40:46.511Z,178.24
2022-12-13T07:41:52.557Z,177.04
2022-12-13T07:42:59.386Z,174.21
2022-12-13T07:44:05.332Z,173.07
2022-12-13T07:45:12.713Z,182.72
2022-12-13T07:46:23.475Z,238.73
2022-12-13T07:47:39.079Z,251.76
2022-12-13T07:48:47.129Z,252.42
2022-12-13T07:49:53.100Z,259.15
2022-12-13T07:51:07.143Z,279.25
2022-12-13T07:52:14.587Z,306.16
2022-12-13T07:53:21.054Z,277.90
2022-12-13T07:54:28.162Z,276.55
2022-12-13T07:55:34.282Z,338.81
2022-12-13T07:56:41.263Z,334.99
2022-12-13T07:57:47.123Z,359.31
2022-12-13T07:58:55.696Z,376.56
2022-12-13T08:00:02.635Z,376.10
2022-12-13T08:01:18.776Z,338.04
2022-12-13T08:02:24.795Z,309.55
2022-12-13T08:03:31.224Z,290.93
2022-12-13T08:04:38.100Z,290.12
2022-12-13T08:05:45.655Z,316.64
2022-12-13T08:06:51.966Z,365.06
2022-12-13T08:07:58.022Z,401.48
2022-12-13T08:09:04.049Z,407.25
2022-12-13T08:10:10.799Z,431.24
2022-12-13T08:11:19.224Z,399.09
2022-12-13T08:12:25.353Z,391.79
2022-12-13T08:13:31.366Z,359.91
2022-12-13T08:14:39.874Z,413.77
2022-12-13T08:15:45.945Z,399.79
2022-12-13T08:16:52.855Z,416.99
2022-12-13T08:18:01.113Z,371.10
2022-12-13T08:19:10.365Z,465.60
2022-12-13T08:20:13.729Z,491.25
2022-12-13T08:21:53.263Z,453.66
2022-12-13T08:23:02.115Z,391.22
2022-12-13T08:24:15.308Z,471.87
2022-12-13T08:25:21.821Z,571.97
2022-12-13T08:26:25.270Z,674.64
2022-12-13T08:27:31.464Z,649.36
2022-12-13T08:28:38.892Z,791.71
2022-12-13T08:29:47.664Z,634.57
2022-12-13T08:30:55.556Z,406.70
2022-12-13T08:32:01.806Z,401.01
2022-12-13T08:33:08.056Z,441.61
2022-12-13T08:34:14.804Z,484.85
2022-12-13T08:35:21.077Z,439.42
2022-12-13T08:36:27.570Z,456.29
2022-12-13T08:37:30.865Z,462.11
2022-12-13T08:38:36.844Z,512.94
2022-12-13T08:39:44.770Z,491.39
2022-12-13T08:40:51.664Z,406.02
2022-12-13T08:41:57.722Z,387.10
2022-12-13T08:43:03.833Z,404.45
2022-12-13T08:44:10.006Z,372.82
2022-12-13T08:45:19.561Z,375.93
2022-12-13T08:46:25.688Z,389.78
2022-12-13T08:47:32.733Z,379.70
2022-12-13T08:48:44.895Z,366.39
2022-12-13T08:49:48.558Z,424.17
2022-12-13T08:50:55.456Z,445.25
2022-12-13T08:52:02.923Z,422.99
2022-12-13T08:53:09.255Z,427.10
2022-12-13T08:54:31.111Z,353.11
2022-12-13T08:55:37.845Z,388.73
2022-12-13T08:56:45.064Z,422.42
2022-12-13T08:57:51.147Z,469.58
2022-12-13T08:58:58.224Z,479.81
2022-12-13T09:00:04.180Z,709.07
2022-12-13T09:01:13.746Z,796.66
2022-12-13T09:02:20.772Z,769.69
2022-12-13T09:03:26.859Z,756.99
2022-12-13T09:04:32.993Z,766.39
2022-12-13T09:05:38.953Z,566.15
2022-12-13T09:06:46.234Z,453.47
2022-12-13T09:07:58.441Z,452.07
2022-12-13T09:09:08.187Z,447.82
2022-12-13T09:10:27.053Z,411.36
2022-12-13T09:11:39.883Z,479.89
2022-12-13T09:12:46.823Z,480.01
2022-12-13T09:13:53.667Z,442.33
2022-12-13T09:15:23.017Z,430.82
2022-12-13T09:16:35.652Z,438.69
2022-12-13T09:17:42.242Z,424.61
2022-12-13T09:18:55.102Z,405.42
2022-12-13T09:20:02.892Z,427.66
2022-12-13T09:21:22.476Z,409.26
2022-12-13T09:22:38.156Z,387.36
2022-12-13T09:23:53.141Z,402.76
2022-12-13T09:25:15.069Z,421.33
2022-12-13T09:26:38.382Z,409.69
2022-12-13T09:27:44.617Z,423.54
2022-12-13T09:28:51.382Z,427.35
2022-12-13T09:29:57.679Z,406.01
2022-12-13T09:31:04.707Z,387.37
2022-12-13T09:32:13.432Z,399.71
2022-12-13T09:33:30.191Z,400.69
2022-12-13T09:34:37.052Z,395.13
2022-12-13T09:35:44.975Z,399.28
2022-12-13T09:36:51.890Z,412.81
2022-12-13T09:37:59.186Z,397.74
2022-12-13T09:39:05.343Z,383.30
2022-12-13T09:40:25.374Z,375.93
2022-12-13T09:41:41.370Z,371.58
2022-12-13T09:43:12.374Z,353.43
2022-12-13T09:44:32.294Z,346.76
2022-12-13T09:45:50.909Z,353.11
2022-12-13T09:47:02.668Z,337.41
2022-12-13T09:48:14.088Z,326.06
2022-12-13T09:49:37.470Z,378.31
2022-12-13T09:50:51.564Z,336.75
2022-12-13T09:52:21.325Z,294.35
2022-12-13T09:53:33.910Z,303.10
2022-12-13T09:54:48.255Z,344.99
2022-12-13T09:56:09.936Z,333.42
2022-12-13T09:57:32.061Z,353.57
2022-12-13T09:58:40.634Z,367.33
2022-12-13T09:59:47.043Z,429.79
2022-12-13T10:00:58.081Z,543.16
2022-12-13T10:02:20.738Z,652.91
2022-12-13T10:03:31.009Z,821.25
2022-12-13T10:04:37.052Z,643.82
2022-12-13T10:05:47.332Z,519.17
2022-12-13T10:06:57.018Z,563.82
2022-12-13T10:08:12.306Z,478.48
2022-12-13T10:09:19.050Z,355.66
2022-12-13T10:10:26.106Z,343.68
2022-12-13T10:11:33.560Z,370.41
2022-12-13T10:12:40.573Z,338.97
2022-12-13T10:13:54.915Z,338.04
2022-12-13T10:15:06.374Z,349.99
2022-12-13T10:16:36.312Z,330.83
2022-12-13T10:17:51.538Z,328.73
2022-12-13T10:19:28.498Z,314.37
2022-12-13T10:20:38.227Z,349.92
2022-12-13T10:21:48.856Z,350.94
2022-12-13T10:23:31.415Z,306.57
2022-12-13T10:24:32.942Z,336.05
2022-12-13T10:25:54.981Z,352.28
2022-12-13T10:27:21.651Z,458.51
2022-12-13T10:28:34.007Z,446.21
2022-12-13T10:30:05.950Z,419.98
2022-12-13T10:31:18.391Z,317.33
2022-12-13T10:32:22.778Z,417.31
2022-12-13T10:33:34.968Z,429.16
2022-12-13T10:34:44.698Z,459.15
2022-12-13T10:36:11.263Z,422.22
2022-12-13T10:37:33.441Z,395.75
2022-12-13T10:38:43.944Z,414.24
2022-12-13T10:39:48.102Z,305.41
2022-12-13T10:40:54.258Z,319.96
2022-12-13T10:42:09.249Z,281.37
2022-12-13T10:43:18.918Z,281.61
2022-12-13T10:44:27.403Z,291.37
2022-12-13T10:45:31.679Z,360.40
2022-12-13T10:46:40.720Z,323.88
2022-12-13T10:47:48.763Z,367.70
2022-12-13T10:48:56.142Z,366.01
2022-12-13T10:50:06.737Z,370.49
2022-12-13T10:51:18.021Z,245.59
2022-12-13T10:52:32.061Z,233.86
2022-12-13T10:53:47.861Z,277.44
2022-12-13T10:54:52.854Z,257.06
2022-12-13T10:56:09.400Z,325.85
2022-12-13T10:57:13.678Z,390.04
2022-12-13T10:58:23.642Z,304.19
2022-12-13T10:59:36.890Z,207.18
2022-12-13T11:00:47.809Z,197.34
2022-12-13T11:01:51.893Z,227.23
2022-12-13T11:02:58.895Z,234.40
2022-12-13T11:04:08.427Z,242.36
2022-12-13T11:05:34.149Z,259.72
2022-12-13T11:06:47.256Z,229.34
2022-12-13T11:07:55.477Z,223.23
2022-12-13T11:09:23.182Z,215.89
2022-12-13T11:10:32.591Z,205.12
2022-12-13T11:11:38.632Z,176.90
2022-12-13T11:12:46.054Z,223.27
2022-12-13T11:14:01.791Z,262.42
2022-12-13T11:15:23.108Z,264.33
2022-12-13T11:16:35.849Z,264.29
2022-12-13T11:17:54.665Z,282.47
2022-12-13T11:19:05.545Z,315.47
2022-12-13T11:20:24.490Z,314.85
2022-12-13T11:21:39.433Z,287.44
2022-12-13T11:22:46.329Z,251.38
2022-12-13T11:23:52.403Z,311.39
2022-12-13T11:25:11.164Z,376.61
2022-12-13T11:26:25.916Z,339.24
2022-12-13T11:28:01.242Z,339.33
2022-12-13T11:29:44.937Z,304.09
2022-12-13T11:31:12.439Z,326.65
2022-12-13T11:32:44.453Z,294.30
2022-12-13T11:34:08.435Z,287.46
2022-12-13T11:35:28.605Z,357.98
2022-12-13T11:36:52.288Z,373.66
2022-12-13T11:38:19.745Z,373.21
2022-12-13T11:39:36.242Z,367.57
2022-12-13T11:40:52.413Z,440.47
2022-12-13T11:42:14.006Z,404.61
2022-12-13T11:43:40.569Z,317.11
2022-12-13T11:45:03.116Z,336.45
2022-12-13T11:46:22.940Z,405.64
2022-12-13T11:47:40.753Z,355.70
2022-12-13T11:48:59.536Z,405.21
2022-12-13T11:50:33.087Z,381.57
2022-12-13T11:51:51.972Z,433.88
2022-12-13T11:53:20.111Z,409.11
2022-12-13T11:54:41.263Z,316.22
2022-12-13T11:55:58.361Z,352.04
2022-12-13T11:57:21.712Z,295.01
2022-12-13T12:00:33.858Z,335.32
2022-12-13T12:01:53.069Z,308.93
2022-12-13T12:03:16.321Z,298.44
2022-12-13T12:04:37.622Z,304.01
2022-12-13T12:05:55.938Z,381.68
2022-12-13T12:07:32.539Z,335.69
2022-12-13T12:08:49.616Z,298.34
2022-12-13T12:10:12.678Z,310.33
2022-12-13T12:11:34.312Z,306.73
2022-12-13T12:12:45.972Z,324.74
2022-12-13T12:14:02.115Z,331.73
2022-12-13T12:15:18.477Z,323.20
2022-12-13T12:16:46.487Z,333.19
2022-12-13T12:17:52.771Z,324.22
2022-12-13T12:19:01.414Z,350.93
2022-12-13T12:20:23.272Z,306.69
2022-12-13T12:22:12.691Z,311.46
2022-12-13T12:23:31.586Z,291.81
2022-12-13T12:25:03.545Z,327.18
2022-12-13T12:26:17.812Z,277.52
2022-12-13T12:27:43.713Z,323.33
2022-12-13T12:29:24.052Z,302.50
2022-12-13T12:30:51.841Z,289.65
2022-12-13T12:32:13.965Z,275.86
2022-12-13T12:33:37.966Z,271.47
2022-12-13T12:35:04.624Z,252.71
2022-12-13T12:36:43.852Z,266.33
2022-12-13T12:38:12.967Z,298.00
2022-12-13T12:39:54.288Z,238.94
2022-12-13T12:41:27.532Z,288.49
2022-12-13T12:43:15.310Z,301.73
2022-12-13T12:44:47.872Z,267.92
2022-12-13T12:46:20.381Z,250.46
2022-12-13T12:48:41.310Z,225.80
2022-12-13T12:49:55.167Z,228.64
2022-12-13T12:51:13.962Z,235.57
2022-12-13T12:52:34.997Z,221.35
2022-12-13T12:53:54.149Z,188.82
2022-12-13T12:55:21.838Z,202.54
2022-12-13T12:56:48.254Z,218.29
2022-12-13T12:58:18.637Z,180.35
2022-12-13T12:59:42.438Z,180.23
2022-12-13T13:01:11.271Z,168.33
2022-12-13T13:02:29.591Z,162.39
2022-12-13T13:03:44.658Z,158.26
2022-12-13T13:05:00.987Z,161.47
2022-12-13T13:06:18.984Z,189.52
2022-12-13T13:07:39.996Z,259.67
2022-12-13T13:08:55.616Z,290.25
2022-12-13T13:10:25.923Z,240.58
2022-12-13T13:11:43.027Z,275.10
2022-12-13T13:12:50.512Z,291.39
2022-12-13T13:14:28.833Z,261.80
2022-12-13T13:15:59.535Z,287.03
2022-12-13T13:17:50.529Z,300.79
2022-12-13T13:18:56.163Z,301.67
2022-12-13T13:20:23.587Z,245.44
2022-12-13T13:21:53.833Z,245.68
2022-12-13T13:23:39.868Z,263.33
2022-12-13T13:24:31.658Z,317.54
2022-12-13T13:26:07.720Z,282.52
2022-12-13T13:27:32.751Z,273.81
2022-12-13T13:28:40.652Z,251.49
2022-12-13T13:29:47.817Z,267.18
2022-12-13T13:31:10.450Z,292.07
2022-12-13T13:32:34.702Z,256.40
2022-12-13T13:33:53.520Z,320.31
2022-12-13T13:35:53.897Z,293.83
2022-12-13T13:37:02.438Z,304.53
2022-12-13T13:39:01.644Z,300.29
2022-12-13T13:40:37.399Z,291.87
2022-12-13T13:42:20.266Z,366.94
2022-12-13T13:43:34.652Z,505.07
2022-12-13T13:45:27.317Z,400.82
2022-12-13T13:46:31.066Z,502.14
2022-12-13T13:47:46.648Z,472.40
2022-12-13T13:49:12.155Z,488.57
2022-12-13T13:51:28.060Z,397.24
2022-12-13T13:52:59.464Z,422.41
2022-12-13T13:55:20.501Z,447.63
2022-12-13T13:56:50.192Z,440.15
2022-12-13T13:58:40.593Z,470.90
2022-12-13T14:00:23.356Z,394.43
2022-12-13T14:02:13.491Z,423.93
2022-12-13T14:04:24.672Z,408.86
2022-12-13T14:06:26.547Z,435.73
2022-12-13T14:08:20.573Z,429.56
2022-12-13T14:10:17.887Z,419.86
2022-12-13T14:12:25.732Z,449.13
2022-12-13T14:14:38.683Z,445.60
2022-12-13T14:16:35.913Z,392.54
2022-12-13T14:18:32.897Z,443.90
2022-12-13T14:20:31.919Z,443.13
2022-12-13T14:22:05.723Z,438.96
2022-12-13T14:23:32.238Z,442.24
2022-12-13T14:24:56.981Z,452.04
2022-12-13T14:26:43.894Z,485.99
2022-12-13T14:28:04.433Z,516.68
2022-12-13T14:29:24.174Z,503.62
2022-12-13T14:30:31.568Z,525.86
2022-12-13T14:31:44.744Z,552.29
2022-12-13T14:32:53.479Z,626.94
2022-12-13T14:34:03.287Z,604.99
2022-12-13T14:35:25.587Z,618.43
2022-12-13T14:36:36.711Z,657.46
2022-12-13T14:37:42.873Z,670.79
2022-12-13T14:38:49.002Z,723.21
2022-12-13T14:39:55.325Z,679.23
2022-12-13T14:41:06.304Z,716.78
2022-12-13T14:42:29.675Z,773.46
2022-12-13T14:43:38.822Z,737.15
2022-12-13T14:44:47.522Z,779.71
2022-12-13T14:45:59.819Z,800.31
2022-12-13T14:47:11.477Z,807.68
2022-12-13T14:48:28.860Z,752.77
2022-12-13T14:49:41.923Z,829.38
2022-12-13T14:50:56.725Z,906.50
2022-12-13T14:52:11.251Z,878.21
2022-12-13T14:53:30.717Z,906.60
2022-12-13T14:54:50.341Z,957.78
2022-12-13T14:56:27.534Z,904.18
2022-12-13T14:57:38.283Z,1015.42
2022-12-13T14:58:58.009Z,1082.35
2022-12-13T15:00:27.614Z,970.34
2022-12-13T15:01:37.274Z,903.47
2022-12-13T15:02:55.834Z,823.53
2022-12-13T15:04:23.102Z,780.46
2022-12-13T15:05:33.361Z,801.50
2022-12-13T15:06:36.916Z,760.74
2022-12-13T15:07:46.268Z,758.97
2022-12-13T15:08:52.649Z,734.73
2022-12-13T15:10:04.688Z,781.53
2022-12-13T15:11:13.459Z,802.85
2022-12-13T15:12:25.148Z,740.28
2022-12-13T15:13:41.095Z,728.59
2022-12-13T15:14:56.595Z,767.20
2022-12-13T15:16:12.684Z,790.11
2022-12-13T15:17:33.807Z,900.82
2022-12-13T15:18:50.510Z,937.22